Time;durP1;ratioP1;P1;durP2;ratioP2;P2;SDS_P1;SDS_P2;PMS_P1;PMS_P2;Temp;Humidity;BMP_temperature;BMP_pressure;BME280_temperature;BME280_humidity;BME280_pressure;Samples;Min_cycle;Max_cycle;Signal;HPM_P1;HPM_P2
2024/03/27 00:01:40;;;;;;;9.40;4.90;;;;;;;8.14;57.89;99001.62;107561;1290;22257;-59
2024/03/27 00:04:06;;;;;;;9.90;5.10;;;;;;;8.13;58.04;99002.17;107579;1307;22401;-59
2024/03/27 00:06:32;;;;;;;6.50;4.90;;;;;;;8.13;57.88;99002.52;107550;1313;22528;-58
2024/03/27 00:08:57;;;;;;;6.60;4.60;;;;;;;8.13;57.69;99004.60;107521;1306;22255;-58
2024/03/27 00:11:25;;;;;;;9.00;4.90;;;;;;;8.10;57.96;99008.61;107520;1292;22207;-59
2024/03/27 00:13:51;;;;;;;6.10;5.00;;;;;;;8.08;57.86;99005.27;107547;1294;22241;-59
2024/03/27 00:16:16;;;;;;;7.70;4.50;;;;;;;8.05;57.85;99007.08;107494;1313;22335;-58
2024/03/27 00:18:41;;;;;;;7.60;4.40;;;;;;;8.03;58.22;99008.16;107560;1310;22270;-58
2024/03/27 00:21:07;;;;;;;7.00;5.20;;;;;;;8.04;58.01;99007.97;107581;1313;22932;-58
2024/03/27 00:23:33;;;;;;;9.30;4.90;;;;;;;8.02;58.04;99002.70;107398;1297;22248;-58
2024/03/27 00:25:59;;;;;;;7.50;4.80;;;;;;;8.02;57.94;98999.62;107532;1313;22413;-58
2024/03/27 00:28:25;;;;;;;9.90;4.60;;;;;;;7.99;58.23;98996.79;107548;1307;23044;-58
2024/03/27 00:30:50;;;;;;;6.20;4.10;;;;;;;8.00;58.02;98996.79;107546;1306;22233;-59
2024/03/27 00:33:16;;;;;;;7.00;4.50;;;;;;;7.99;58.10;98997.30;107428;1293;22331;-58
2024/03/27 00:35:51;;;;;;;6.20;3.90;;;;;;;8.02;58.40;98992.05;107556;1307;22415;-59
2024/03/27 00:38:17;;;;;;;6.50;4.50;;;;;;;8.09;58.06;98984.98;107569;1312;22310;-60
2024/03/27 00:40:42;;;;;;;7.80;4.70;;;;;;;8.11;58.30;98976.66;107532;1307;22291;-58
2024/03/27 00:43:07;;;;;;;8.20;5.40;;;;;;;8.14;57.93;98975.90;107421;1297;22322;-59
2024/03/27 00:45:33;;;;;;;7.00;4.70;;;;;;;8.13;58.22;98978.50;107566;1313;22388;-58
2024/03/27 00:47:58;;;;;;;8.40;4.60;;;;;;;8.14;58.09;98975.02;107573;1313;22370;-60
2024/03/27 00:50:24;;;;;;;6.40;4.70;;;;;;;8.13;58.15;98967.69;107417;1313;22263;-58
2024/03/27 00:52:49;;;;;;;5.90;3.80;;;;;;;8.14;57.81;98968.16;107551;1293;22301;-57
2024/03/27 00:55:14;;;;;;;5.80;4.40;;;;;;;8.15;58.08;98966.09;107541;1313;22229;-58
2024/03/27 00:57:42;;;;;;;7.00;4.60;;;;;;;8.15;58.01;98969.67;107565;1313;22567;-58
2024/03/27 01:00:10;;;;;;;7.40;4.60;;;;;;;8.15;57.88;98965.73;107451;1313;22228;-59
2024/03/27 01:02:36;;;;;;;6.30;4.60;;;;;;;8.16;57.85;98963.46;107528;1290;22286;-58
2024/03/27 01:05:01;;;;;;;7.30;4.70;;;;;;;8.16;57.97;98964.16;107525;1307;22359;-57
2024/03/27 01:07:27;;;;;;;9.70;4.40;;;;;;;8.15;58.09;98962.12;107565;1313;22244;-58
2024/03/27 01:09:52;;;;;;;8.00;4.60;;;;;;;8.18;57.95;98955.84;107528;1307;22260;-58
2024/03/27 01:12:17;;;;;;;7.30;4.80;;;;;;;8.23;57.86;98953.46;107574;1313;22256;-59
2024/03/27 01:14:43;;;;;;;6.80;4.70;;;;;;;8.27;57.84;98949.38;107554;1290;22761;-58
2024/03/27 01:17:09;;;;;;;6.50;4.60;;;;;;;8.31;57.83;98938.09;107575;1313;22478;-59
2024/03/27 01:19:34;;;;;;;6.00;4.70;;;;;;;8.35;57.77;98937.95;107496;1313;22264;-59
2024/03/27 01:21:59;;;;;;;6.00;4.20;;;;;;;8.37;57.87;98932.92;107584;1313;22251;-59
2024/03/27 01:24:25;;;;;;;8.30;4.60;;;;;;;8.39;57.69;98931.12;107576;1293;22355;-58
2024/03/27 01:26:50;;;;;;;9.60;4.80;;;;;;;8.42;57.64;98926.88;107568;1306;22477;-58
2024/03/27 01:29:16;;;;;;;5.60;4.50;;;;;;;8.48;57.54;98922.04;107428;1313;22277;-59
2024/03/27 01:31:41;;;;;;;7.10;4.30;;;;;;;8.52;57.45;98918.66;107581;1313;22445;-59
2024/03/27 01:34:06;;;;;;;5.90;4.50;;;;;;;8.57;57.35;98916.92;107546;1294;22328;-58
2024/03/27 01:36:32;;;;;;;12.20;4.90;;;;;;;8.62;57.34;98912.64;107590;1313;22242;-59
2024/03/27 01:38:57;;;;;;;8.20;4.60;;;;;;;8.61;57.27;98910.59;107579;1307;22317;-58
2024/03/27 01:41:22;;;;;;;7.10;4.50;;;;;;;8.66;57.19;98911.66;107548;1310;22266;-58
2024/03/27 01:43:48;;;;;;;8.20;5.10;;;;;;;8.70;57.10;98910.14;107443;1296;22281;-58
2024/03/27 01:46:15;;;;;;;7.50;5.10;;;;;;;8.71;57.09;98907.17;107569;1307;22281;-58
2024/03/27 01:48:40;;;;;;;10.50;5.00;;;;;;;8.70;56.85;98908.23;107556;1306;22258;-57
2024/03/27 01:51:08;;;;;;;6.40;4.50;;;;;;;8.73;56.87;98910.69;107554;1307;22277;-58
2024/03/27 01:53:35;;;;;;;9.70;4.50;;;;;;;8.74;56.88;98907.24;107544;1291;22403;-58
2024/03/27 01:56:00;;;;;;;7.80;4.40;;;;;;;8.75;56.80;98905.31;107580;1307;22424;-58
2024/03/27 01:58:26;;;;;;;6.30;3.80;;;;;;;8.74;56.70;98898.48;107589;1306;22134;-58
2024/03/27 02:00:51;;;;;;;7.00;4.40;;;;;;;8.71;56.56;98896.00;107346;1313;23345;-58
2024/03/27 02:03:18;;;;;;;6.80;4.50;;;;;;;8.68;56.71;98893.71;107564;1313;22204;-59
2024/03/27 02:05:45;;;;;;;7.50;4.80;;;;;;;8.66;56.65;98891.73;107430;1292;23053;-58
2024/03/27 02:08:11;;;;;;;8.70;4.80;;;;;;;8.64;56.80;98889.22;107550;1306;22315;-57
2024/03/27 02:10:36;;;;;;;6.80;4.60;;;;;;;8.57;56.67;98884.97;107564;1310;22263;-58
2024/03/27 02:13:02;;;;;;;9.00;4.50;;;;;;;8.55;56.65;98884.89;107559;1313;22297;-58
2024/03/27 02:15:27;;;;;;;5.20;3.80;;;;;;;8.52;56.68;98883.96;107451;1297;22362;-58
2024/03/27 02:17:52;;;;;;;7.00;4.70;;;;;;;8.51;56.56;98879.38;107567;1313;22315;-58
2024/03/27 02:20:18;;;;;;;6.20;4.40;;;;;;;8.49;56.60;98873.91;107552;1307;22278;-58
2024/03/27 02:22:43;;;;;;;9.00;4.00;;;;;;;8.47;56.55;98871.79;107553;1305;22316;-58
2024/03/27 02:25:11;;;;;;;8.70;4.40;;;;;;;8.45;56.61;98871.67;107555;1291;22281;-57
2024/03/27 02:27:37;;;;;;;5.60;4.30;;;;;;;8.43;56.49;98867.11;107561;1313;22336;-57
2024/03/27 02:30:03;;;;;;;8.00;5.10;;;;;;;8.40;56.53;98870.48;107574;1305;22429;-58
2024/03/27 02:32:28;;;;;;;5.30;4.10;;;;;;;8.37;56.53;98865.80;107546;1313;23069;-58
2024/03/27 02:34:54;;;;;;;10.10;4.70;;;;;;;8.35;56.46;98871.35;107550;1297;22274;-57
2024/03/27 02:37:19;;;;;;;12.10;4.70;;;;;;;8.31;56.48;98867.52;107562;1313;22255;-58
2024/03/27 02:39:44;;;;;;;9.20;4.40;;;;;;;8.28;56.57;98868.50;107550;1313;22238;-58
2024/03/27 02:42:10;;;;;;;5.80;4.30;;;;;;;8.26;56.53;98864.09;107519;1299;22343;-58
2024/03/27 02:44:35;;;;;;;5.20;4.10;;;;;;;8.23;56.60;98859.05;107540;1291;22208;-58
2024/03/27 02:47:01;;;;;;;4.70;3.70;;;;;;;8.21;56.50;98855.02;107546;1306;22386;-57
2024/03/27 02:49:26;;;;;;;6.10;4.20;;;;;;;8.19;56.59;98857.48;107539;1313;22300;-58
2024/03/27 02:51:53;;;;;;;5.40;3.80;;;;;;;8.15;56.55;98856.39;107566;1310;22273;-57
2024/03/27 02:54:18;;;;;;;6.50;4.00;;;;;;;8.12;56.60;98858.77;107325;1307;22281;-59
2024/03/27 02:56:43;;;;;;;5.50;4.10;;;;;;;8.10;56.65;98863.61;107306;1290;23002;-58
2024/03/27 02:59:09;;;;;;;6.20;4.00;;;;;;;8.06;56.75;98859.80;107289;1307;22273;-59
2024/03/27 03:01:34;;;;;;;7.10;4.50;;;;;;;8.01;56.76;98854.65;107283;1307;22284;-59
2024/03/27 03:03:59;;;;;;;6.90;4.20;;;;;;;7.97;56.84;98854.09;107305;1313;22306;-59
2024/03/27 03:06:25;;;;;;;7.20;4.50;;;;;;;7.97;56.76;98851.16;107323;1294;22302;-59
2024/03/27 03:08:51;;;;;;;5.30;4.20;;;;;;;8.00;56.82;98854.67;107314;1313;23053;-60
2024/03/27 03:11:17;;;;;;;6.10;4.60;;;;;;;8.03;56.79;98855.30;107302;1313;22266;-58
2024/03/27 03:13:43;;;;;;;9.30;4.80;;;;;;;7.99;56.73;98849.39;107308;1313;22242;-59
2024/03/27 03:16:09;;;;;;;6.60;4.60;;;;;;;7.94;56.80;98847.84;107274;1290;22306;-59
2024/03/27 03:18:35;;;;;;;10.30;4.10;;;;;;;7.88;56.96;98853.88;107280;1306;23021;-60
2024/03/27 03:21:04;;;;;;;6.50;3.90;;;;;;;7.85;57.03;98850.90;107302;1306;22246;-59
2024/03/27 03:23:30;;;;;;;7.40;4.10;;;;;;;7.80;56.95;98848.15;107281;1313;22304;-59
2024/03/27 03:25:56;;;;;;;7.40;4.20;;;;;;;7.77;57.16;98843.98;107286;1293;22121;-59
2024/03/27 03:28:21;;;;;;;6.60;4.20;;;;;;;7.77;57.31;98844.16;107274;1313;22930;-59
2024/03/27 03:30:47;;;;;;;7.40;4.90;;;;;;;7.78;57.07;98838.46;107291;1313;22249;-59
2024/03/27 03:33:12;;;;;;;8.60;4.50;;;;;;;7.78;57.23;98837.60;107298;1313;22235;-59
2024/03/27 03:35:38;;;;;;;10.20;4.60;;;;;;;7.76;57.15;98832.20;107292;1291;22298;-59
2024/03/27 03:38:03;;;;;;;6.40;4.30;;;;;;;7.75;57.11;98834.29;107300;1313;22412;-59
2024/03/27 03:40:29;;;;;;;7.80;4.50;;;;;;;7.77;57.27;98830.77;107295;1313;22260;-59
2024/03/27 03:42:54;;;;;;;7.20;4.30;;;;;;;7.76;57.15;98829.28;107272;1307;22248;-60
2024/03/27 03:45:20;;;;;;;6.60;4.20;;;;;;;7.74;57.12;98829.02;107301;1313;22496;-59
2024/03/27 03:47:45;;;;;;;6.50;4.40;;;;;;;7.72;57.24;98830.96;107276;1294;22329;-57
2024/03/27 03:50:11;;;;;;;6.70;4.20;;;;;;;7.69;57.32;98829.69;107300;1313;22257;-59
2024/03/27 03:52:36;;;;;;;6.70;4.80;;;;;;;7.64;57.31;98829.66;107302;1307;22239;-59
2024/03/27 03:55:01;;;;;;;5.50;4.20;;;;;;;7.61;57.51;98825.31;107298;1307;22221;-59
2024/03/27 03:57:27;;;;;;;6.20;4.40;;;;;;;7.58;57.46;98824.55;107201;1297;24436;-59
2024/03/27 03:59:52;;;;;;;6.60;4.50;;;;;;;7.55;57.52;98817.61;107290;1310;22400;-59
2024/03/27 04:02:17;;;;;;;8.30;4.20;;;;;;;7.53;57.46;98818.35;107317;1307;22269;-58
2024/03/27 04:04:43;;;;;;;9.80;5.00;;;;;;;7.51;57.49;98817.75;107598;1313;22282;-57
2024/03/27 04:07:08;;;;;;;7.30;4.30;;;;;;;7.51;57.52;98813.63;107564;1293;22300;-58
2024/03/27 04:09:34;;;;;;;6.00;4.20;;;;;;;7.53;57.68;98815.27;107599;1306;22193;-58
2024/03/27 04:11:59;;;;;;;6.70;4.30;;;;;;;7.53;57.59;98813.05;107428;1308;22303;-57
2024/03/27 04:14:24;;;;;;;8.00;4.80;;;;;;;7.48;57.74;98814.26;107577;1313;22268;-59
2024/03/27 04:16:50;;;;;;;5.60;4.20;;;;;;;7.45;57.69;98811.41;107557;1294;24320;-58
2024/03/27 04:19:15;;;;;;;5.90;4.40;;;;;;;7.43;57.64;98807.22;107571;1306;22353;-58
2024/03/27 04:21:40;;;;;;;6.40;4.10;;;;;;;7.39;57.92;98800.66;107579;1307;22288;-58
2024/03/27 04:24:07;;;;;;;10.20;4.70;;;;;;;7.34;57.86;98800.31;107596;1313;22279;-58
2024/03/27 04:26:32;;;;;;;5.50;4.10;;;;;;;7.32;58.00;98798.48;107567;1291;21975;-57
2024/03/27 04:28:58;;;;;;;6.60;4.10;;;;;;;7.30;57.76;98796.66;107543;1313;22439;-58
2024/03/27 04:31:23;;;;;;;6.50;4.50;;;;;;;7.27;57.77;98793.00;107502;1313;22283;-57
2024/03/27 04:33:49;;;;;;;8.30;4.30;;;;;;;7.23;57.79;98792.63;107572;1313;22387;-58
2024/03/27 04:36:16;;;;;;;7.20;4.40;;;;;;;7.20;57.85;98791.35;107575;1307;22440;-58
2024/03/27 04:38:42;;;;;;;8.00;4.10;;;;;;;7.17;58.15;98788.52;107578;1293;22294;-58
2024/03/27 04:41:09;;;;;;;5.40;4.20;;;;;;;7.14;58.39;98787.42;107463;1310;22289;-58
2024/03/27 04:43:35;;;;;;;;;;;;;;;7.12;58.28;98787.33;107577;1307;22471;-57
2024/03/27 04:46:00;;;;;;;5.80;4.10;;;;;;;7.13;58.34;98783.86;107548;1306;22101;-58
2024/03/27 04:48:25;;;;;;;5.40;4.10;;;;;;;7.14;58.23;98779.69;107409;1297;22291;-58
2024/03/27 04:50:51;;;;;;;6.80;4.00;;;;;;;7.15;58.38;98776.41;107531;1313;22322;-58
2024/03/27 04:53:16;;;;;;;7.80;4.20;;;;;;;7.18;58.36;98769.81;107541;1313;22771;-58
2024/03/27 04:55:41;;;;;;;7.90;4.80;;;;;;;7.21;58.33;98764.56;107600;1307;22360;-58
2024/03/27 04:58:07;;;;;;;5.70;4.70;;;;;;;7.24;58.15;98763.45;107605;1294;22456;-58
2024/03/27 05:00:32;;;;;;;7.30;4.00;;;;;;;7.27;58.36;98760.10;107646;1307;22230;-58
2024/03/27 05:02:58;;;;;;;6.00;3.90;;;;;;;7.30;58.25;98756.72;107642;1307;22276;-58
2024/03/27 05:05:23;;;;;;;8.70;4.70;;;;;;;7.33;58.22;98750.59;107656;1307;22285;-58
2024/03/27 05:07:49;;;;;;;8.70;4.30;;;;;;;7.42;58.14;98746.22;107588;1294;22317;-57
2024/03/27 05:10:14;;;;;;;7.50;4.30;;;;;;;7.48;57.98;98745.34;107594;1313;22464;-58
2024/03/27 05:12:41;;;;;;;6.30;3.70;;;;;;;7.55;57.83;98738.21;107545;1310;22434;-59
2024/03/27 05:15:08;;;;;;;6.20;4.30;;;;;;;7.65;57.77;98737.39;107338;1308;22284;-58
2024/03/27 05:17:33;;;;;;;6.80;4.60;;;;;;;7.71;57.61;98739.58;107252;1291;22822;-59
2024/03/27 05:19:59;;;;;;;8.30;4.60;;;;;;;7.77;57.61;98736.27;107265;1314;22239;-59
2024/03/27 05:22:27;;;;;;;6.70;4.50;;;;;;;7.81;57.63;98737.64;107356;1307;22358;-59
2024/03/27 05:24:54;;;;;;;8.10;4.20;;;;;;;7.86;57.55;98738.84;107400;1307;23110;-59
2024/03/27 05:27:19;;;;;;;10.40;4.40;;;;;;;7.92;57.25;98737.77;107224;1309;22407;-59
2024/03/27 05:29:44;;;;;;;5.90;4.20;;;;;;;8.00;57.39;98736.48;107343;1294;22283;-58
2024/03/27 05:32:10;;;;;;;9.40;5.10;;;;;;;8.04;57.20;98729.80;107264;1308;23106;-57
2024/03/27 05:34:36;;;;;;;5.80;4.20;;;;;;;8.10;57.06;98726.99;107337;1307;22280;-59
2024/03/27 05:37:01;;;;;;;8.70;4.50;;;;;;;8.18;56.86;98719.34;107287;1307;22224;-59
2024/03/27 05:39:27;;;;;;;6.60;4.00;;;;;;;8.25;56.80;98718.21;107302;1290;22356;-59
2024/03/27 05:41:53;;;;;;;5.20;3.50;;;;;;;8.30;56.86;98717.19;107369;1308;22394;-59
2024/03/27 05:44:18;;;;;;;7.00;4.30;;;;;;;8.30;56.50;98719.39;107349;1307;22268;-58
2024/03/27 05:46:46;;;;;;;6.60;3.90;;;;;;;8.32;56.50;98720.36;107432;1313;22259;-59
2024/03/27 05:49:12;;;;;;;5.00;3.80;;;;;;;8.33;56.53;98725.31;107617;1291;22341;-58
2024/03/27 05:51:38;;;;;;;5.40;3.90;;;;;;;8.34;56.54;98730.09;107307;1313;22691;-58
2024/03/27 05:54:03;;;;;;;7.90;4.00;;;;;;;8.36;56.54;98725.38;107458;1305;22274;-58
2024/03/27 05:56:29;;;;;;;5.30;4.50;;;;;;;8.38;56.26;98720.13;107422;1306;22446;-60
2024/03/27 05:58:55;;;;;;;5.20;4.00;;;;;;;8.39;56.10;98713.91;107514;1294;22341;-60
2024/03/27 06:01:20;;;;;;;6.60;4.20;;;;;;;8.44;56.13;98712.19;107252;1307;22188;-59
2024/03/27 06:03:51;;;;;;;6.00;4.40;;;;;;;8.49;56.07;98711.13;107241;1305;22317;-60
2024/03/27 06:06:16;;;;;;;5.20;4.50;;;;;;;8.55;56.11;98707.98;107231;1307;22284;-61
2024/03/27 06:08:43;;;;;;;8.40;4.70;;;;;;;8.67;56.20;98703.27;107307;1291;22453;-61
2024/03/27 06:11:09;;;;;;;8.10;4.10;;;;;;;8.82;55.59;98702.80;107215;1307;22228;-60
2024/03/27 06:13:35;;;;;;;6.40;4.40;;;;;;;8.96;55.11;98698.79;107258;1305;22386;-61
2024/03/27 06:16:00;;;;;;;4.00;3.40;;;;;;;9.13;55.42;98703.60;107203;1304;22292;-60
2024/03/27 06:18:25;;;;;;;6.50;4.20;;;;;;;9.31;55.29;98702.17;107241;1310;22224;-61
2024/03/27 06:20:52;;;;;;;5.20;4.20;;;;;;;9.48;54.51;98704.04;107205;1295;23178;-61
2024/03/27 06:23:17;;;;;;;5.60;4.60;;;;;;;9.60;54.37;98697.48;107285;1310;22924;-60
2024/03/27 06:25:53;;;;;;;6.40;4.20;;;;;;;9.72;54.27;98693.38;107270;1313;22258;-61
2024/03/27 06:28:18;;;;;;;9.00;4.10;;;;;;;9.90;54.06;98696.33;107168;1306;22248;-60
2024/03/27 06:30:44;;;;;;;5.70;3.80;;;;;;;10.04;53.87;98699.33;107225;1294;23008;-60
2024/03/27 06:33:09;;;;;;;7.50;4.60;;;;;;;10.19;54.03;98703.33;107275;1307;22362;-60
2024/03/27 06:35:35;;;;;;;6.70;5.20;;;;;;;10.37;54.14;98702.88;107264;1313;22369;-60
2024/03/27 06:38:00;;;;;;;5.40;4.50;;;;;;;10.49;53.52;98706.09;107279;1307;22219;-60
2024/03/27 06:40:25;;;;;;;9.60;4.30;;;;;;;10.58;53.06;98705.98;107253;1294;22333;-59
2024/03/27 06:42:51;;;;;;;4.70;4.00;;;;;;;10.61;52.95;98710.00;107228;1308;23190;-60
2024/03/27 06:45:16;;;;;;;6.10;4.40;;;;;;;10.64;53.19;98706.59;107116;1309;22438;-59
2024/03/27 06:47:43;;;;;;;7.80;4.30;;;;;;;10.72;53.31;98704.50;107273;1307;22300;-60
2024/03/27 06:50:10;;;;;;;6.10;4.30;;;;;;;10.81;52.44;98709.41;107251;1304;22291;-60
2024/03/27 06:52:35;;;;;;;;;;;;;;;10.86;52.55;98709.52;107311;1310;22542;-60
2024/03/27 06:55:01;;;;;;;8.10;4.60;;;;;;;10.85;52.42;98715.08;107262;1308;23184;-61
2024/03/27 06:57:26;;;;;;;6.00;4.40;;;;;;;10.96;52.05;98713.65;107223;1307;22344;-60
2024/03/27 06:59:51;;;;;;;5.60;4.30;;;;;;;11.16;52.80;98711.47;107234;1291;22251;-63
2024/03/27 07:02:17;;;;;;;6.40;4.80;;;;;;;11.37;52.03;98704.95;107228;1310;22257;-61
2024/03/27 07:04:43;;;;;;;7.70;6.00;;;;;;;11.55;51.95;98702.79;107301;1313;22243;-62
2024/03/27 07:07:09;;;;;;;8.90;6.60;;;;;;;11.61;51.07;98703.35;107297;1313;22509;-60
2024/03/27 07:09:34;;;;;;;11.20;8.20;;;;;;;11.71;50.77;98701.63;107248;1298;22347;-60
2024/03/27 07:12:00;;;;;;;7.40;6.70;;;;;;;11.81;50.98;98701.96;107282;1292;22333;-60
2024/03/27 07:14:25;;;;;;;6.70;5.50;;;;;;;11.86;51.74;98696.55;107161;1313;22250;-59
2024/03/27 07:16:50;;;;;;;7.50;4.50;;;;;;;11.97;51.59;98704.62;107106;1311;23006;-59
2024/03/27 07:19:16;;;;;;;6.30;5.60;;;;;;;12.02;51.38;98700.89;107080;1304;142131;-59
2024/03/27 07:21:42;;;;;;;6.10;4.80;;;;;;;12.25;50.54;98702.27;107203;1297;22304;-59
2024/03/27 07:24:08;;;;;;;4.90;4.50;;;;;;;12.51;50.16;98701.38;107214;1310;22245;-59
2024/03/27 07:26:38;;;;;;;6.80;4.40;;;;;;;12.81;49.50;98700.52;107169;1313;22366;-59
2024/03/27 07:29:05;;;;;;;6.20;4.40;;;;;;;13.28;49.63;98694.40;107214;1310;23027;-61
2024/03/27 07:31:30;;;;;;;7.20;4.20;;;;;;;13.84;50.64;98686.24;107215;1300;22953;-61
2024/03/27 07:33:56;;;;;;;6.20;4.20;;;;;;;14.37;48.79;98684.20;107200;1310;23027;-60
2024/03/27 07:36:21;;;;;;;5.20;4.00;;;;;;;14.73;49.18;98677.89;107218;1313;23004;-60
2024/03/27 07:38:46;;;;;;;5.20;4.60;;;;;;;14.81;47.44;98676.67;107194;1313;22289;-60
2024/03/27 07:41:12;;;;;;;6.60;4.00;;;;;;;14.92;48.37;98670.45;107175;1293;22353;-60
2024/03/27 07:43:37;;;;;;;8.10;4.20;;;;;;;15.14;46.22;98673.13;107233;1313;22227;-59
2024/03/27 07:46:07;;;;;;;5.60;3.70;;;;;;;15.35;47.89;98675.91;107207;1313;22997;-60
2024/03/27 07:48:33;;;;;;;8.70;4.00;;;;;;;15.33;44.74;98678.48;107175;1305;23025;-60
2024/03/27 07:50:59;;;;;;;7.20;4.60;;;;;;;15.14;45.20;98670.71;107169;1304;22427;-60
2024/03/27 07:53:24;;;;;;;7.90;4.90;;;;;;;15.04;45.30;98667.58;107211;1313;22265;-60
2024/03/27 07:55:56;;;;;;;9.00;4.80;;;;;;;15.13;45.63;98667.33;107158;1310;22394;-60
2024/03/27 07:58:22;;;;;;;7.40;5.40;;;;;;;15.37;44.35;98662.73;107143;1308;22530;-60
2024/03/27 08:00:49;;;;;;;5.50;4.60;;;;;;;15.78;44.91;98657.34;107137;1292;22139;-60
2024/03/27 08:03:14;;;;;;;6.20;4.70;;;;;;;16.50;44.29;98652.98;107155;1307;22288;-60
2024/03/27 08:05:39;;;;;;;7.20;4.40;;;;;;;17.15;43.46;98650.45;107149;1313;23101;-60
2024/03/27 08:08:05;;;;;;;5.60;4.30;;;;;;;17.50;42.41;98649.20;107241;1313;22769;-60
2024/03/27 08:10:31;;;;;;;6.50;4.30;;;;;;;17.71;42.50;98651.42;107246;1307;22411;-61
2024/03/27 08:12:56;;;;;;;4.70;4.00;;;;;;;17.98;40.68;98649.76;107113;1296;22285;-60
2024/03/27 08:15:22;;;;;;;4.70;4.00;;;;;;;18.57;43.20;98647.14;107241;1313;22462;-60
2024/03/27 08:17:47;;;;;;;6.80;4.30;;;;;;;19.12;42.45;98642.78;107252;1311;22398;-61
2024/03/27 08:20:13;;;;;;;5.00;4.30;;;;;;;19.28;41.75;98638.66;107257;1314;22265;-60
2024/03/27 08:22:38;;;;;;;5.10;4.00;;;;;;;19.03;39.08;98633.36;107184;1299;22303;-60
2024/03/27 08:25:04;;;;;;;6.40;4.20;;;;;;;18.61;40.72;98632.62;107206;1308;22204;-60
2024/03/27 08:27:30;;;;;;;6.00;4.70;;;;;;;18.54;40.58;98629.71;107095;1308;23239;-61
2024/03/27 08:29:55;;;;;;;6.80;4.60;;;;;;;18.51;40.45;98627.84;107202;1313;22513;-61
2024/03/27 08:32:20;;;;;;;5.20;4.50;;;;;;;18.56;38.87;98631.83;107185;1297;22425;-61
2024/03/27 08:34:46;;;;;;;4.70;4.30;;;;;;;19.17;39.03;98625.93;107185;1310;22245;-60
2024/03/27 08:37:11;;;;;;;5.30;4.20;;;;;;;19.74;37.70;98624.27;107161;1313;22448;-61
2024/03/27 08:39:37;;;;;;;5.00;4.00;;;;;;;20.31;38.24;98627.36;107205;1307;22311;-61
2024/03/27 08:42:02;;;;;;;6.20;4.60;;;;;;;20.31;35.04;98632.44;107198;1294;22273;-61
2024/03/27 08:44:27;;;;;;;5.10;4.00;;;;;;;20.39;36.49;98623.66;107249;1307;22338;-61
2024/03/27 08:46:53;;;;;;;8.70;4.30;;;;;;;20.89;37.08;98614.27;107235;1313;22225;-61
2024/03/27 08:49:18;;;;;;;5.20;4.40;;;;;;;21.23;36.21;98609.73;107230;1307;22383;-62
2024/03/27 08:51:44;;;;;;;7.90;4.90;;;;;;;21.66;36.72;98611.84;107185;1291;22519;-62
2024/03/27 08:54:09;;;;;;;6.50;3.90;;;;;;;22.11;36.36;98616.54;107208;1307;22328;-61
2024/03/27 08:56:35;;;;;;;5.40;4.30;;;;;;;22.27;36.05;98620.64;107190;1310;22252;-61
2024/03/27 08:59:01;;;;;;;7.30;4.10;;;;;;;21.93;33.98;98625.83;107128;1313;22259;-61
2024/03/27 09:01:27;;;;;;;5.50;3.60;;;;;;;21.50;33.76;98628.87;107104;1310;22411;-61
2024/03/27 09:03:53;;;;;;;5.30;4.40;;;;;;;21.18;33.70;98625.83;107183;1294;22297;-60
2024/03/27 09:06:18;;;;;;;5.20;4.00;;;;;;;21.53;33.71;98620.11;107280;1306;22283;-60
2024/03/27 09:08:44;;;;;;;6.10;4.00;;;;;;;21.59;33.28;98622.04;107270;1307;22330;-61
2024/03/27 09:11:10;;;;;;;6.20;4.00;;;;;;;21.57;34.79;98620.09;107237;1310;22394;-62
2024/03/27 09:13:36;;;;;;;5.30;4.60;;;;;;;22.40;34.42;98618.09;107220;1300;22272;-61
2024/03/27 09:16:03;;;;;;;4.50;4.10;;;;;;;22.65;32.95;98624.34;107311;1311;23117;-60
2024/03/27 09:18:29;;;;;;;6.80;3.60;;;;;;;22.70;32.24;98625.23;107268;1313;22369;-62
2024/03/27 09:20:55;;;;;;;4.60;3.70;;;;;;;22.32;31.95;98629.37;107234;1313;23192;-60
2024/03/27 09:23:21;;;;;;;;;;;;;;;21.81;32.30;98626.20;107210;1294;22865;-60
2024/03/27 09:25:58;;;;;;;5.70;3.80;;;;;;;21.79;32.79;98622.39;107191;1310;22307;-62
2024/03/27 09:28:25;;;;;;;4.20;3.80;;;;;;;22.22;32.51;98622.55;107242;1313;22281;-61
2024/03/27 09:30:51;;;;;;;5.80;3.70;;;;;;;22.78;31.95;98614.02;107218;1313;22918;-60
2024/03/27 09:33:17;;;;;;;6.20;4.00;;;;;;;23.29;32.71;98615.67;107145;1294;22376;-60
2024/03/27 09:35:46;;;;;;;4.10;3.70;;;;;;;23.68;31.11;98617.52;107210;1310;22247;-60
2024/03/27 09:38:11;;;;;;;5.00;4.00;;;;;;;23.83;31.14;98626.34;107206;1313;22317;-61
2024/03/27 09:40:41;;;;;;;6.90;3.70;;;;;;;24.00;29.41;98629.54;107189;1310;22240;-61
2024/03/27 09:43:06;;;;;;;6.90;3.90;;;;;;;23.65;29.36;98623.28;107039;1291;22289;-61
2024/03/27 09:45:34;;;;;;;4.70;3.40;;;;;;;23.78;29.10;98629.88;107147;1307;23113;-61
2024/03/27 09:48:00;;;;;;;4.80;3.90;;;;;;;23.98;29.22;98635.20;107128;1313;23072;-60
2024/03/27 09:50:27;;;;;;;4.30;3.20;;;;;;;24.30;29.20;98635.35;107188;1306;22556;-62
2024/03/27 09:52:53;;;;;;;5.50;3.60;;;;;;;24.31;28.57;98631.06;107130;1298;23274;-60
2024/03/27 09:55:18;;;;;;;4.50;3.20;;;;;;;24.40;29.40;98632.40;107218;1294;22290;-59
2024/03/27 09:57:44;;;;;;;6.60;4.00;;;;;;;24.71;29.37;98634.01;107231;1307;23028;-60
2024/03/27 10:00:11;;;;;;;3.40;3.10;;;;;;;25.03;28.44;98635.47;107206;1307;22447;-60
2024/03/27 10:02:38;;;;;;;6.50;3.90;;;;;;;25.08;27.45;98637.61;107091;1307;22465;-59
2024/03/27 10:05:09;;;;;;;6.30;3.70;;;;;;;24.53;27.86;98635.06;107213;1305;22289;-60
2024/03/27 10:07:35;;;;;;;6.80;4.50;;;;;;;24.76;28.20;98635.77;107211;1307;22259;-59
2024/03/27 10:10:01;;;;;;;;;;;;;;;25.06;28.80;98634.34;107211;1307;22476;-59
2024/03/27 10:12:26;;;;;;;6.00;3.70;;;;;;;24.94;28.16;98634.77;107155;1305;22413;-60
2024/03/27 10:14:51;;;;;;;4.60;3.90;;;;;;;25.15;28.55;98631.05;107049;1294;22516;-59
2024/03/27 10:17:17;;;;;;;4.90;3.70;;;;;;;25.54;27.83;98624.11;107086;1307;22533;-60
2024/03/27 10:19:42;;;;;;;5.30;3.50;;;;;;;25.19;27.67;98624.23;107106;1306;22343;-60
2024/03/27 10:22:07;;;;;;;7.00;3.60;;;;;;;25.06;28.48;98633.45;107045;1307;23687;-60
2024/03/27 10:24:33;;;;;;;4.90;3.70;;;;;;;24.41;27.98;98634.56;107058;1290;22386;-61
2024/03/27 10:27:02;;;;;;;4.50;4.10;;;;;;;24.66;28.59;98629.41;107127;1306;22316;-60
2024/03/27 10:29:27;;;;;;;6.70;4.60;;;;;;;24.64;28.18;98630.17;107106;1313;22283;-61
2024/03/27 10:31:53;;;;;;;6.10;3.40;;;;;;;24.85;28.19;98627.98;107098;1313;22350;-60
2024/03/27 10:34:19;;;;;;;4.80;4.10;;;;;;;24.79;27.74;98624.73;107042;1297;22296;-60
2024/03/27 10:36:45;;;;;;;6.70;4.50;;;;;;;24.82;27.94;98621.07;107140;1307;22797;-60
2024/03/27 10:39:16;;;;;;;4.60;3.50;;;;;;;24.61;28.01;98622.95;107228;1313;22298;-59
2024/03/27 10:41:41;;;;;;;4.70;3.40;;;;;;;24.74;28.43;98619.30;107218;1313;22254;-61
2024/03/27 10:44:10;;;;;;;8.90;4.30;;;;;;;24.80;27.90;98626.58;107164;1291;22285;-60
2024/03/27 10:46:38;;;;;;;4.40;3.90;;;;;;;24.57;27.80;98627.63;107217;1307;22377;-60
2024/03/27 10:49:06;;;;;;;7.10;4.20;;;;;;;24.40;28.06;98622.02;107181;1313;22325;-58
2024/03/27 10:51:33;;;;;;;4.80;4.30;;;;;;;24.07;28.75;98621.38;107172;1308;22306;-60
2024/03/27 10:53:59;;;;;;;6.30;3.70;;;;;;;24.09;28.86;98618.91;107207;1297;22201;-60
2024/03/27 10:56:25;;;;;;;8.00;3.90;;;;;;;24.05;28.05;98621.58;107257;1294;22331;-60
2024/03/27 10:58:51;;;;;;;7.30;3.80;;;;;;;24.19;28.42;98612.92;107204;1308;22274;-60
2024/03/27 11:01:17;;;;;;;9.80;3.30;;;;;;;24.80;28.11;98606.13;107200;1313;22319;-60
2024/03/27 11:03:42;;;;;;;5.80;4.50;;;;;;;25.03;27.66;98604.13;107228;1313;22288;-60
2024/03/27 11:06:14;;;;;;;7.80;3.80;;;;;;;24.82;28.12;98605.70;107224;1293;22431;-60
2024/03/27 11:08:44;;;;;;;4.90;3.60;;;;;;;25.09;28.46;98598.94;107130;1313;22249;-61
2024/03/27 11:11:11;;;;;;;8.50;4.20;;;;;;;25.98;27.49;98596.85;107156;1314;22347;-61
2024/03/27 11:13:37;;;;;;;4.70;3.40;;;;;;;26.10;27.12;98595.98;107248;1313;23195;-60
2024/03/27 11:16:09;;;;;;;5.00;3.40;;;;;;;26.27;27.20;98596.33;107278;1306;22261;-61
2024/03/27 11:18:35;;;;;;;6.60;3.80;;;;;;;26.28;26.77;98588.11;107278;1313;23070;-60
2024/03/27 11:21:00;;;;;;;5.10;3.20;;;;;;;26.48;27.04;98589.20;107260;1313;22274;-60
2024/03/27 11:23:30;;;;;;;7.30;3.60;;;;;;;26.43;26.84;98593.96;107276;1313;22423;-62
2024/03/27 11:25:57;;;;;;;9.90;3.40;;;;;;;25.46;27.08;98591.48;107277;1294;22257;-60